createdAt,value
2023-11-25T00:00:23.515Z,58.69
2023-11-25T00:02:25.003Z,58.59
2023-11-25T00:04:26.443Z,58.64
2023-11-25T00:06:28.960Z,58.36
2023-11-25T00:08:30.320Z,58.44
2023-11-25T00:10:31.703Z,57.96
2023-11-25T00:12:33.199Z,58.56
2023-11-25T00:14:35.054Z,58.75
2023-11-25T00:16:36.565Z,58.73
2023-11-25T00:18:37.988Z,58.75
2023-11-25T00:20:39.338Z,58.70
2023-11-25T00:22:40.766Z,58.69
2023-11-25T00:24:42.184Z,58.60
2023-11-25T00:26:43.889Z,58.72
2023-11-25T00:28:45.842Z,58.19
2023-11-25T00:30:47.230Z,58.67
2023-11-25T00:32:48.618Z,57.80
2023-11-25T00:34:49.957Z,58.16
2023-11-25T00:36:52.676Z,58.13
2023-11-25T00:38:54.036Z,58.05
2023-11-25T00:40:55.379Z,58.02
2023-11-25T00:42:56.863Z,58.37
2023-11-25T00:44:58.247Z,57.82
2023-11-25T00:46:59.640Z,58.06
2023-11-25T00:49:01.045Z,57.97
2023-11-25T00:51:02.523Z,57.73
2023-11-25T00:53:04.156Z,57.98
2023-11-25T00:55:05.584Z,58.31
2023-11-25T00:57:06.935Z,58.51
2023-11-25T00:59:09.211Z,58.48
2023-11-25T01:01:10.686Z,58.46
2023-11-25T01:03:12.110Z,58.53
2023-11-25T01:05:13.541Z,58.68
2023-11-25T01:07:14.880Z,58.70
2023-11-25T01:09:17.397Z,58.48
2023-11-25T01:11:18.807Z,58.72
2023-11-25T01:13:20.240Z,58.73
2023-11-25T01:15:21.593Z,58.60
2023-11-25T01:17:24.549Z,59.06
2023-11-25T01:19:25.916Z,58.22
2023-11-25T01:21:27.253Z,59.08
2023-11-25T01:23:28.669Z,59.95
2023-11-25T01:25:30.067Z,60.00
2023-11-25T01:27:31.923Z,58.95
2023-11-25T01:29:33.243Z,58.79
2023-11-25T01:31:34.737Z,58.71
2023-11-25T01:33:36.211Z,58.75
2023-11-25T01:35:39.467Z,59.21
2023-11-25T01:37:41.121Z,58.81
2023-11-25T01:39:43.137Z,58.54
2023-11-25T01:41:47.387Z,58.48
2023-11-25T01:43:48.861Z,58.07
2023-11-25T01:45:50.418Z,58.19
2023-11-25T01:47:53.368Z,58.35
2023-11-25T01:49:54.702Z,58.34
2023-11-25T01:51:56.178Z,58.12
2023-11-25T01:53:57.559Z,57.89
2023-11-25T01:55:59.636Z,58.22
2023-11-25T01:58:01.030Z,58.08
2023-11-25T02:00:04.108Z,58.03
2023-11-25T02:02:08.785Z,58.22
2023-11-25T02:04:10.351Z,58.17
2023-11-25T02:06:11.747Z,57.97
2023-11-25T02:08:13.117Z,57.82
2023-11-25T02:10:16.420Z,58.14
2023-11-25T02:12:17.794Z,58.09
2023-11-25T02:14:19.571Z,58.29
2023-11-25T02:16:21.460Z,58.27
2023-11-25T02:18:23.917Z,58.07
2023-11-25T02:20:25.274Z,58.18
2023-11-25T02:22:27.516Z,58.36
2023-11-25T02:24:31.165Z,58.68
2023-11-25T02:26:32.896Z,58.25
2023-11-25T02:28:35.955Z,58.68
2023-11-25T02:30:37.491Z,58.49
2023-11-25T02:32:39.030Z,58.87
2023-11-25T02:34:41.037Z,58.74
2023-11-25T02:36:42.737Z,59.47
2023-11-25T02:38:44.597Z,59.19
2023-11-25T02:40:46.068Z,59.35
2023-11-25T02:42:48.571Z,59.20
2023-11-25T02:44:49.918Z,59.58
2023-11-25T02:46:51.306Z,59.04
2023-11-25T02:48:52.658Z,59.26
2023-11-25T02:50:53.994Z,58.97
2023-11-25T02:52:55.427Z,59.23
2023-11-25T02:54:56.753Z,59.38
2023-11-25T02:56:58.119Z,59.78
2023-11-25T02:58:59.836Z,59.66
2023-11-25T03:01:09.557Z,59.33
2023-11-25T03:03:14.166Z,60.33
2023-11-25T03:05:15.824Z,58.73
2023-11-25T03:07:17.197Z,58.54
2023-11-25T03:09:18.864Z,58.50
2023-11-25T03:11:22.077Z,58.43
2023-11-25T03:13:24.230Z,58.19
2023-11-25T03:15:25.639Z,58.02
2023-11-25T03:17:28.826Z,58.45
2023-11-25T03:19:30.257Z,58.66
2023-11-25T03:21:31.726Z,57.76
2023-11-25T03:23:33.098Z,57.80
2023-11-25T03:25:35.047Z,58.02
2023-11-25T03:27:36.451Z,58.02
2023-11-25T03:29:37.809Z,58.13
2023-11-25T03:31:39.310Z,57.94
2023-11-25T03:33:40.701Z,58.08
2023-11-25T03:35:42.866Z,58.20
2023-11-25T03:37:44.221Z,57.97
2023-11-25T03:39:45.906Z,57.90
2023-11-25T03:41:47.397Z,58.57
2023-11-25T03:43:48.730Z,58.11
2023-11-25T03:45:50.105Z,58.26
2023-11-25T03:47:52.795Z,58.16
2023-11-25T03:49:54.256Z,58.47
2023-11-25T03:51:55.664Z,58.24
2023-11-25T03:53:57.213Z,59.21
2023-11-25T03:56:01.099Z,59.88
2023-11-25T03:58:04.207Z,59.82
2023-11-25T04:00:15.311Z,60.09
2023-11-25T04:02:16.829Z,60.20
2023-11-25T04:04:18.978Z,60.83
2023-11-25T04:06:20.686Z,60.50
2023-11-25T04:08:22.404Z,60.55
2023-11-25T04:10:23.784Z,61.18
2023-11-25T04:12:25.164Z,60.64
2023-11-25T04:14:26.903Z,60.90
2023-11-25T04:16:28.346Z,61.13
2023-11-25T04:18:29.769Z,61.31
2023-11-25T04:20:34.450Z,61.47
2023-11-25T04:22:36.263Z,61.65
2023-11-25T04:24:37.623Z,61.79
2023-11-25T04:26:39.007Z,61.34
2023-11-25T04:28:40.891Z,61.74
2023-11-25T04:30:42.265Z,61.80
2023-11-25T04:32:44.234Z,61.94
2023-11-25T04:34:45.688Z,61.91
2023-11-25T04:36:47.042Z,61.97
2023-11-25T04:38:48.435Z,62.12
2023-11-25T04:40:49.829Z,62.53
2023-11-25T04:42:51.255Z,62.29
2023-11-25T04:44:52.614Z,62.12
2023-11-25T04:46:54.070Z,62.00
2023-11-25T04:48:55.517Z,61.75
2023-11-25T04:50:56.847Z,61.85
2023-11-25T04:52:58.545Z,61.90
2023-11-25T04:54:59.873Z,62.05
2023-11-25T04:57:03.199Z,61.46
2023-11-25T04:59:06.436Z,61.17
2023-11-25T05:01:07.797Z,60.71
2023-11-25T05:03:10.681Z,60.59
2023-11-25T05:05:12.405Z,60.52
2023-11-25T05:07:13.809Z,60.65
2023-11-25T05:09:15.151Z,60.41
2023-11-25T05:11:16.484Z,60.28
2023-11-25T05:13:17.875Z,60.26
2023-11-25T05:15:19.610Z,60.09
2023-11-25T05:17:21.178Z,60.38
2023-11-25T05:19:23.191Z,60.30
2023-11-25T05:21:24.594Z,60.44
2023-11-25T05:23:26.960Z,60.62
2023-11-25T05:25:28.317Z,60.56
2023-11-25T05:27:29.712Z,61.00
2023-11-25T05:29:31.367Z,61.06
2023-11-25T05:31:34.623Z,61.43
2023-11-25T05:33:36.134Z,61.00
2023-11-25T05:35:37.483Z,61.58
2023-11-25T05:37:38.929Z,61.35
2023-11-25T05:39:42.098Z,61.58
2023-11-25T05:41:44.258Z,61.54
2023-11-25T05:43:48.241Z,61.13
2023-11-25T05:45:49.677Z,61.57
2023-11-25T05:47:52.489Z,62.05
2023-11-25T05:49:53.996Z,61.82
2023-11-25T05:51:57.708Z,61.74
2023-11-25T05:54:00.534Z,61.86
2023-11-25T05:56:01.879Z,62.32
2023-11-25T05:58:03.286Z,62.25
2023-11-25T06:00:04.669Z,62.23
2023-11-25T06:02:06.087Z,62.75
2023-11-25T06:04:07.623Z,62.57
2023-11-25T06:06:09.036Z,62.20
2023-11-25T06:08:10.404Z,62.80
2023-11-25T06:10:11.981Z,62.70
2023-11-25T06:12:14.738Z,62.77
2023-11-25T06:14:16.684Z,62.23
2023-11-25T06:16:18.109Z,62.69
2023-11-25T06:18:21.589Z,62.64
2023-11-25T06:20:26.366Z,63.12
2023-11-25T06:22:27.939Z,63.00
2023-11-25T06:24:29.351Z,63.12
2023-11-25T06:26:30.758Z,62.58
2023-11-25T06:28:32.089Z,63.04
2023-11-25T06:30:33.596Z,62.71
2023-11-25T06:32:35.102Z,62.94
2023-11-25T06:34:36.605Z,62.21
2023-11-25T06:36:39.152Z,62.40
2023-11-25T06:38:41.250Z,62.33
2023-11-25T06:40:42.712Z,62.20
2023-11-25T06:42:44.132Z,61.56
2023-11-25T06:44:48.481Z,62.06
2023-11-25T06:46:50.542Z,61.51
2023-11-25T06:48:53.770Z,61.38
2023-11-25T06:50:55.251Z,61.66
2023-11-25T06:52:56.583Z,61.31
2023-11-25T06:54:57.970Z,61.83
2023-11-25T06:56:59.351Z,61.48
2023-11-25T06:59:01.390Z,61.40
2023-11-25T07:01:05.677Z,60.51
2023-11-25T07:03:07.160Z,60.57
2023-11-25T07:05:11.754Z,60.65
2023-11-25T07:07:14.791Z,60.84
2023-11-25T07:09:16.174Z,60.85
2023-11-25T07:11:17.566Z,61.36
2023-11-25T07:13:18.998Z,60.89
2023-11-25T07:15:20.397Z,61.43
2023-11-25T07:17:23.270Z,61.44
2023-11-25T07:19:24.843Z,61.34
2023-11-25T07:21:26.331Z,61.59
2023-11-25T07:23:27.729Z,61.70
2023-11-25T07:25:30.415Z,62.18
2023-11-25T07:27:31.769Z,61.96
2023-11-25T07:29:33.409Z,61.82
2023-11-25T07:31:34.872Z,61.77
2023-11-25T07:33:36.280Z,62.13
2023-11-25T07:35:37.610Z,62.32
2023-11-25T07:37:39.989Z,62.02
2023-11-25T07:39:41.503Z,62.32
2023-11-25T07:41:42.833Z,62.25
2023-11-25T07:43:44.215Z,61.99
2023-11-25T07:45:45.569Z,62.26
2023-11-25T07:47:46.941Z,62.33
2023-11-25T07:49:48.385Z,62.38
2023-11-25T07:51:49.869Z,62.14
2023-11-25T07:53:51.274Z,62.10
2023-11-25T07:55:52.709Z,62.11
2023-11-25T07:57:54.123Z,62.26
2023-11-25T07:59:58.383Z,62.57
2023-11-25T08:01:59.822Z,62.08
2023-11-25T08:04:01.371Z,61.77
2023-11-25T08:06:02.856Z,61.38
2023-11-25T08:08:04.576Z,61.56
2023-11-25T08:10:08.965Z,61.77
2023-11-25T08:12:10.375Z,61.25
2023-11-25T08:14:11.708Z,61.33
2023-11-25T08:16:13.146Z,61.43
2023-11-25T08:18:17.086Z,61.11
2023-11-25T08:20:18.526Z,61.14
2023-11-25T08:22:19.908Z,60.86
2023-11-25T08:24:21.377Z,60.90
2023-11-25T08:26:22.746Z,61.41
2023-11-25T08:28:25.000Z,61.09
2023-11-25T08:30:26.411Z,61.38
2023-11-25T08:32:27.943Z,61.20
2023-11-25T08:34:29.390Z,61.30
2023-11-25T08:36:30.758Z,61.55
2023-11-25T08:38:32.166Z,61.89
2023-11-25T08:40:35.751Z,61.48
2023-11-25T08:42:37.155Z,62.04
2023-11-25T08:44:38.599Z,61.61
2023-11-25T08:46:41.017Z,61.68
2023-11-25T08:48:43.201Z,62.28
2023-11-25T08:50:44.559Z,61.94
2023-11-25T08:52:47.832Z,62.23
2023-11-25T08:54:50.745Z,62.09
2023-11-25T08:56:53.726Z,62.86
2023-11-25T08:59:05.905Z,62.39
2023-11-25T09:01:09.748Z,62.47
2023-11-25T09:03:11.555Z,62.20
2023-11-25T09:05:16.027Z,61.85
2023-11-25T09:07:18.487Z,62.50
2023-11-25T09:09:20.555Z,62.22
2023-11-25T09:11:21.987Z,62.58
2023-11-25T09:13:23.373Z,62.14
2023-11-25T09:15:24.779Z,61.52
2023-11-25T09:17:26.755Z,61.62
2023-11-25T09:19:28.148Z,61.77
2023-11-25T09:21:30.065Z,61.56
2023-11-25T09:23:31.432Z,61.75
2023-11-25T09:25:32.897Z,61.62
2023-11-25T09:27:34.474Z,61.16
2023-11-25T09:29:35.889Z,60.84
2023-11-25T09:31:37.254Z,61.26
2023-11-25T09:33:38.724Z,60.67
2023-11-25T09:35:40.174Z,60.85
2023-11-25T09:37:41.668Z,60.76
2023-11-25T09:39:43.070Z,60.71
2023-11-25T09:41:44.593Z,60.63
2023-11-25T09:43:46.282Z,60.67
2023-11-25T09:45:47.660Z,60.92
2023-11-25T09:47:49.016Z,61.01
2023-11-25T09:49:50.438Z,61.24
2023-11-25T09:51:51.784Z,61.20
2023-11-25T09:53:53.097Z,61.29
2023-11-25T09:55:54.497Z,61.28
2023-11-25T09:57:55.925Z,61.40
2023-11-25T09:59:57.247Z,61.64
2023-11-25T10:01:59.324Z,61.79
2023-11-25T10:04:00.985Z,61.99
2023-11-25T10:06:02.737Z,62.09
2023-11-25T10:08:05.533Z,61.71
2023-11-25T10:10:07.035Z,61.84
2023-11-25T10:12:09.043Z,62.13
2023-11-25T10:14:10.489Z,62.23
2023-11-25T10:16:11.959Z,62.95
2023-11-25T10:18:13.299Z,62.63
2023-11-25T10:20:20.355Z,62.73
2023-11-25T10:22:21.958Z,62.88
2023-11-25T10:24:23.696Z,62.71
2023-11-25T10:26:26.166Z,62.73
2023-11-25T10:28:27.696Z,62.76
2023-11-25T10:30:30.137Z,63.08
2023-11-25T10:32:31.620Z,62.51
2023-11-25T10:34:33.022Z,62.85
2023-11-25T10:36:34.439Z,62.49
2023-11-25T10:38:35.801Z,62.56
2023-11-25T10:40:37.239Z,62.50
2023-11-25T10:42:38.599Z,62.21
2023-11-25T10:44:39.929Z,62.35
2023-11-25T10:46:42.391Z,62.25
2023-11-25T10:48:43.883Z,61.85
2023-11-25T10:50:45.263Z,61.75
2023-11-25T10:52:47.021Z,61.70
2023-11-25T10:54:48.430Z,61.93
2023-11-25T10:56:49.759Z,61.90
2023-11-25T10:58:51.177Z,61.48
2023-11-25T11:00:52.566Z,61.68
2023-11-25T11:02:58.346Z,61.27
2023-11-25T11:05:00.056Z,61.15
2023-11-25T11:07:02.344Z,61.31
2023-11-25T11:09:04.533Z,61.53
2023-11-25T11:11:06.099Z,61.30
2023-11-25T11:13:07.507Z,61.43
2023-11-25T11:15:11.155Z,61.33
2023-11-25T11:17:13.287Z,61.23
2023-11-25T11:19:14.811Z,61.42
2023-11-25T11:21:17.001Z,61.44
2023-11-25T11:23:18.391Z,61.39
2023-11-25T11:25:20.452Z,61.36
2023-11-25T11:27:21.914Z,61.74
2023-11-25T11:29:26.537Z,61.79
2023-11-25T11:31:29.361Z,61.87
2023-11-25T11:33:31.441Z,61.98
2023-11-25T11:35:32.807Z,61.85
2023-11-25T11:37:34.160Z,61.51
2023-11-25T11:39:35.675Z,61.78
2023-11-25T11:41:39.286Z,61.85
2023-11-25T11:43:40.714Z,61.81
2023-11-25T11:45:43.366Z,61.36
2023-11-25T11:47:45.829Z,61.47
2023-11-25T11:49:47.240Z,61.88
2023-11-25T11:51:48.621Z,61.59
2023-11-25T11:53:50.024Z,61.70
2023-11-25T11:55:52.929Z,61.40
2023-11-25T11:57:54.376Z,61.31
2023-11-25T11:59:55.721Z,61.09
2023-11-25T12:01:57.267Z,61.33
2023-11-25T12:03:58.938Z,61.09
2023-11-25T12:06:00.370Z,61.02
2023-11-25T12:08:04.825Z,60.79
2023-11-25T12:10:06.879Z,60.36
2023-11-25T12:12:08.257Z,60.58
2023-11-25T12:14:09.742Z,60.44
2023-11-25T12:16:11.158Z,60.25
2023-11-25T12:18:12.588Z,59.63
2023-11-25T12:20:14.753Z,59.80
2023-11-25T12:22:16.084Z,59.64
2023-11-25T12:24:17.411Z,59.25
2023-11-25T12:26:18.798Z,59.70
2023-11-25T12:28:20.115Z,59.58
2023-11-25T12:30:21.459Z,59.60
2023-11-25T12:32:22.877Z,59.17
2023-11-25T12:34:24.273Z,59.70
2023-11-25T12:36:25.645Z,59.22
2023-11-25T12:38:32.519Z,59.15
2023-11-25T12:40:33.950Z,59.39
2023-11-25T12:42:35.353Z,59.94
2023-11-25T12:44:38.658Z,59.54
2023-11-25T12:46:40.192Z,59.70
2023-11-25T12:48:42.387Z,59.84
2023-11-25T12:50:43.767Z,60.04
2023-11-25T12:52:47.053Z,59.72
2023-11-25T12:54:50.533Z,60.06
2023-11-25T12:56:53.147Z,60.11
2023-11-25T12:58:54.556Z,60.00
2023-11-25T13:00:58.893Z,60.41
2023-11-25T13:03:00.580Z,60.05
2023-11-25T13:05:03.050Z,60.44
2023-11-25T13:07:04.472Z,60.65
2023-11-25T13:09:07.396Z,60.42
2023-11-25T13:11:12.107Z,60.17
2023-11-25T13:13:13.435Z,60.67
2023-11-25T13:15:14.761Z,60.46
2023-11-25T13:17:16.192Z,60.48
2023-11-25T13:19:18.187Z,60.73
2023-11-25T13:21:19.941Z,60.65
2023-11-25T13:23:21.382Z,60.62
2023-11-25T13:25:22.743Z,60.19
2023-11-25T13:27:24.103Z,60.54
2023-11-25T13:29:25.449Z,60.36
2023-11-25T13:31:26.985Z,60.04
2023-11-25T13:33:28.450Z,59.68
2023-11-25T13:35:31.029Z,59.78
2023-11-25T13:37:32.553Z,59.58
2023-11-25T13:39:37.183Z,59.42
2023-11-25T13:41:38.649Z,59.29
2023-11-25T13:43:40.095Z,59.33
2023-11-25T13:45:42.657Z,58.71
2023-11-25T13:47:44.097Z,58.60
2023-11-25T13:49:45.517Z,58.76
2023-11-25T13:51:46.902Z,58.46
2023-11-25T13:53:49.370Z,58.57
2023-11-25T13:55:50.716Z,58.74
2023-11-25T13:57:55.383Z,58.13
2023-11-25T13:59:56.778Z,58.43
2023-11-25T14:01:58.384Z,58.43
2023-11-25T14:04:02.538Z,58.31
2023-11-25T14:06:04.413Z,58.66
2023-11-25T14:08:08.026Z,58.37
2023-11-25T14:10:09.442Z,58.58
2023-11-25T14:12:10.806Z,58.79
2023-11-25T14:14:13.315Z,58.90
2023-11-25T14:16:14.749Z,58.51
2023-11-25T14:18:16.144Z,58.51
2023-11-25T14:20:17.586Z,58.47
2023-11-25T14:22:20.100Z,58.75
2023-11-25T14:24:22.701Z,58.99
2023-11-25T14:26:25.909Z,58.65
2023-11-25T14:28:27.314Z,59.17
2023-11-25T14:30:30.113Z,58.98
2023-11-25T14:32:31.644Z,59.26
2023-11-25T14:34:33.015Z,58.89
2023-11-25T14:36:34.558Z,59.35
2023-11-25T14:38:36.740Z,59.41
2023-11-25T14:40:40.352Z,59.00
2023-11-25T14:42:42.086Z,59.57
2023-11-25T14:44:45.671Z,58.98
2023-11-25T14:46:47.057Z,59.22
2023-11-25T14:48:48.720Z,59.07
2023-11-25T14:50:50.061Z,59.03
2023-11-25T14:52:51.464Z,59.04
2023-11-25T14:54:52.898Z,59.11
2023-11-25T14:56:54.221Z,58.90
2023-11-25T14:58:55.679Z,58.72
2023-11-25T15:00:57.113Z,59.06
2023-11-25T15:03:00.553Z,59.00
2023-11-25T15:05:02.085Z,58.34
2023-11-25T15:07:03.505Z,58.50
2023-11-25T15:09:04.829Z,58.25
2023-11-25T15:11:06.275Z,58.57
2023-11-25T15:13:08.148Z,46.71
2023-11-25T15:15:09.742Z,45.17
2023-11-25T15:17:11.486Z,46.50
2023-11-25T15:19:12.974Z,50.14
2023-11-25T15:21:14.377Z,50.02
2023-11-25T15:23:15.739Z,50.62
2023-11-25T15:25:17.125Z,51.46
2023-11-25T15:27:19.349Z,51.78
2023-11-25T15:29:20.850Z,52.00
2023-11-25T15:31:22.264Z,51.43
2023-11-25T15:33:23.880Z,51.88
2023-11-25T15:35:25.238Z,52.08
2023-11-25T15:37:26.654Z,52.15
2023-11-25T15:39:28.396Z,52.43
2023-11-25T15:41:29.833Z,52.44
2023-11-25T15:43:31.379Z,52.77
2023-11-25T15:45:33.646Z,52.67
2023-11-25T15:47:35.293Z,53.27
2023-11-25T15:49:36.705Z,53.14
2023-11-25T15:51:38.172Z,53.43
2023-11-25T15:53:39.568Z,53.35
2023-11-25T15:55:40.996Z,53.35
2023-11-25T15:57:42.392Z,53.69
2023-11-25T15:59:43.784Z,53.88
2023-11-25T16:01:45.410Z,53.61
2023-11-25T16:03:46.841Z,53.82
2023-11-25T16:05:48.174Z,53.31
2023-11-25T16:07:49.642Z,54.07
2023-11-25T16:09:51.062Z,54.61
2023-11-25T16:11:52.466Z,54.80
2023-11-25T16:13:53.874Z,55.08
2023-11-25T16:15:55.267Z,55.22
2023-11-25T16:17:56.675Z,55.96
2023-11-25T16:19:58.936Z,55.29
2023-11-25T16:22:00.274Z,55.41
2023-11-25T16:24:01.664Z,55.85
2023-11-25T16:26:03.076Z,56.27
2023-11-25T16:28:04.614Z,55.92
2023-11-25T16:30:07.173Z,55.91
2023-11-25T16:32:08.729Z,56.12
2023-11-25T16:34:13.670Z,56.46
2023-11-25T16:36:15.065Z,57.02
2023-11-25T16:38:19.420Z,57.45
2023-11-25T16:40:23.724Z,57.54
2023-11-25T16:42:25.098Z,57.98
2023-11-25T16:44:26.451Z,57.73
2023-11-25T16:46:27.890Z,58.14
2023-11-25T16:48:39.241Z,58.04
2023-11-25T16:50:49.994Z,57.59
2023-11-25T16:52:51.343Z,57.90
2023-11-25T16:54:52.725Z,58.02
2023-11-25T16:56:54.128Z,58.28
2023-11-25T16:58:55.514Z,57.73
2023-11-25T17:00:57.976Z,57.77
2023-11-25T17:02:59.686Z,57.62
2023-11-25T17:05:01.249Z,57.42
2023-11-25T17:07:10.020Z,57.68
2023-11-25T17:09:12.309Z,57.70
2023-11-25T17:11:13.681Z,57.49
2023-11-25T17:13:16.143Z,57.54
2023-11-25T17:15:17.519Z,57.11
2023-11-25T17:17:19.014Z,56.42
2023-11-25T17:19:21.689Z,56.65
2023-11-25T17:21:23.016Z,57.09
2023-11-25T17:23:24.351Z,57.05
2023-11-25T17:25:25.720Z,56.71
2023-11-25T17:27:27.055Z,56.76
2023-11-25T17:29:28.508Z,56.59
2023-11-25T17:31:29.845Z,56.28
2023-11-25T17:33:31.190Z,56.77
2023-11-25T17:35:32.676Z,57.12
2023-11-25T17:37:34.052Z,57.14
2023-11-25T17:39:36.696Z,56.57
2023-11-25T17:41:38.786Z,56.56
2023-11-25T17:43:40.185Z,56.44
2023-11-25T17:45:42.491Z,56.53
2023-11-25T17:47:43.852Z,56.73
2023-11-25T17:49:46.374Z,56.45
2023-11-25T17:51:47.931Z,57.26
2023-11-25T17:53:49.279Z,57.12
2023-11-25T17:55:50.688Z,57.26
2023-11-25T17:57:52.291Z,57.54
2023-11-25T17:59:53.678Z,57.34
2023-11-25T18:01:55.310Z,57.13
2023-11-25T18:03:56.945Z,57.25
2023-11-25T18:05:58.413Z,57.52
2023-11-25T18:07:59.749Z,57.87
2023-11-25T18:10:01.177Z,57.96
2023-11-25T18:12:02.538Z,57.49
2023-11-25T18:14:04.001Z,57.99
2023-11-25T18:16:05.931Z,57.69
2023-11-25T18:18:07.327Z,57.90
2023-11-25T18:20:08.899Z,58.19
2023-11-25T18:22:10.758Z,59.05
2023-11-25T18:24:12.097Z,57.96
2023-11-25T18:26:16.496Z,57.80
2023-11-25T18:28:18.576Z,58.01
2023-11-25T18:30:21.197Z,57.68
2023-11-25T18:32:22.588Z,57.50
2023-11-25T18:34:23.928Z,57.57
2023-11-25T18:36:25.342Z,57.82
2023-11-25T18:38:26.676Z,57.65
2023-11-25T18:40:32.390Z,57.83
2023-11-25T18:42:34.620Z,57.76
2023-11-25T18:44:36.463Z,57.26
2023-11-25T18:46:38.017Z,57.01
2023-11-25T18:48:39.492Z,57.14
2023-11-25T18:50:40.937Z,56.80
2023-11-25T18:52:42.337Z,57.17
2023-11-25T18:54:43.712Z,57.17
2023-11-25T18:56:45.074Z,57.15
2023-11-25T18:58:46.670Z,57.31
2023-11-25T19:00:48.414Z,56.73
2023-11-25T19:02:51.037Z,56.99
2023-11-25T19:04:52.603Z,56.57
2023-11-25T19:06:54.038Z,56.75
2023-11-25T19:08:55.442Z,56.88
2023-11-25T19:11:00.135Z,56.98
2023-11-25T19:13:01.693Z,56.97
2023-11-25T19:15:03.097Z,57.42
2023-11-25T19:17:06.682Z,57.44
2023-11-25T19:19:08.975Z,57.50
2023-11-25T19:21:10.311Z,57.83
2023-11-25T19:23:11.688Z,57.61
2023-11-25T19:25:13.068Z,57.78
2023-11-25T19:27:14.413Z,57.62
2023-11-25T19:29:17.107Z,58.08
2023-11-25T19:31:18.536Z,57.92
2023-11-25T19:33:20.599Z,58.40
2023-11-25T19:35:22.095Z,58.35
2023-11-25T19:37:25.176Z,58.25
2023-11-25T19:39:26.494Z,58.42
2023-11-25T19:41:28.782Z,58.37
2023-11-25T19:43:30.711Z,58.48
2023-11-25T19:45:32.042Z,58.99
2023-11-25T19:47:34.058Z,58.96
2023-11-25T19:49:35.720Z,59.24
2023-11-25T19:51:37.098Z,59.42
2023-11-25T19:53:50.041Z,59.48
2023-11-25T19:55:53.217Z,59.50
2023-11-25T19:57:56.704Z,59.71
2023-11-25T20:00:00.702Z,59.76
2023-11-25T20:02:02.256Z,59.61
2023-11-25T20:04:03.702Z,59.47
2023-11-25T20:06:05.112Z,59.54
2023-11-25T20:08:06.517Z,59.68
2023-11-25T20:10:09.490Z,59.45
2023-11-25T20:12:11.086Z,59.64
2023-11-25T20:14:14.178Z,59.52
2023-11-25T20:16:15.724Z,59.18
2023-11-25T20:18:19.210Z,59.43
2023-11-25T20:20:21.820Z,59.28
2023-11-25T20:22:23.198Z,55.42
2023-11-25T20:24:24.989Z,55.11
2023-11-25T20:26:26.836Z,55.11
2023-11-25T20:28:30.078Z,55.53
2023-11-25T20:30:31.478Z,55.19
2023-11-25T20:32:32.925Z,55.00
2023-11-25T20:34:34.357Z,55.46
2023-11-25T20:36:36.129Z,55.31
2023-11-25T20:38:37.448Z,56.00
2023-11-25T20:40:38.788Z,55.94
2023-11-25T20:42:42.438Z,55.89
2023-11-25T20:44:43.863Z,56.10
2023-11-25T20:46:45.286Z,56.45
2023-11-25T20:48:46.643Z,55.59
2023-11-25T20:50:48.021Z,55.86
2023-11-25T20:52:49.437Z,56.87
2023-11-25T20:54:56.765Z,57.33
2023-11-25T20:56:58.089Z,57.91
2023-11-25T20:59:01.762Z,58.24
2023-11-25T21:01:04.119Z,58.54
2023-11-25T21:03:05.785Z,58.68
2023-11-25T21:05:07.511Z,58.93
2023-11-25T21:07:09.200Z,58.70
2023-11-25T21:09:10.624Z,57.94
2023-11-25T21:11:12.230Z,57.29
2023-11-25T21:13:13.600Z,58.00
2023-11-25T21:15:15.346Z,57.50
2023-11-25T21:17:16.940Z,57.65
2023-11-25T21:19:18.261Z,58.20
2023-11-25T21:21:19.592Z,57.90
2023-11-25T21:23:20.974Z,58.13
2023-11-25T21:25:23.070Z,58.39
2023-11-25T21:27:24.617Z,58.06
2023-11-25T21:29:26.028Z,57.91
2023-11-25T21:31:27.401Z,58.16
2023-11-25T21:33:29.013Z,57.73
2023-11-25T21:35:30.421Z,57.97
2023-11-25T21:37:31.820Z,57.63
2023-11-25T21:39:33.160Z,57.99
2023-11-25T21:41:34.508Z,57.88
2023-11-25T21:43:35.877Z,58.45
2023-11-25T21:45:38.138Z,58.38
2023-11-25T21:47:39.569Z,57.74
2023-11-25T21:49:41.178Z,57.24
2023-11-25T21:51:42.615Z,57.57
2023-11-25T21:53:43.978Z,57.15
2023-11-25T21:55:45.364Z,56.99
2023-11-25T21:57:46.748Z,57.20
2023-11-25T21:59:48.198Z,57.05
2023-11-25T22:01:49.721Z,57.51
2023-11-25T22:03:51.267Z,57.84
2023-11-25T22:05:52.682Z,57.92
2023-11-25T22:07:54.102Z,57.83
2023-11-25T22:09:55.450Z,57.37
2023-11-25T22:11:57.077Z,57.29
2023-11-25T22:13:58.418Z,57.56
2023-11-25T22:15:59.915Z,57.56
2023-11-25T22:18:01.327Z,57.24
2023-11-25T22:20:03.053Z,57.69
2023-11-25T22:22:04.435Z,57.72
2023-11-25T22:24:05.762Z,57.56
2023-11-25T22:26:16.703Z,57.48
2023-11-25T22:28:18.139Z,57.71
2023-11-25T22:30:19.563Z,57.70
2023-11-25T22:32:21.044Z,57.50
2023-11-25T22:34:22.511Z,57.66
2023-11-25T22:36:24.458Z,57.57
2023-11-25T22:38:29.750Z,57.43
2023-11-25T22:40:31.113Z,57.44
2023-11-25T22:42:32.438Z,57.51
2023-11-25T22:44:33.876Z,57.70
2023-11-25T22:46:37.515Z,57.99
2023-11-25T22:48:38.982Z,58.22
2023-11-25T22:50:40.397Z,58.06
2023-11-25T22:52:42.618Z,58.68
2023-11-25T22:54:44.022Z,58.11
2023-11-25T22:56:45.413Z,57.44
2023-11-25T22:58:47.252Z,57.30
2023-11-25T23:00:53.514Z,57.46
2023-11-25T23:02:55.191Z,57.51
2023-11-25T23:04:56.629Z,57.35
2023-11-25T23:06:58.655Z,57.36
2023-11-25T23:09:00.030Z,57.19
2023-11-25T23:11:01.731Z,57.65
2023-11-25T23:13:03.138Z,57.42
2023-11-25T23:15:05.522Z,57.54
2023-11-25T23:17:06.970Z,57.72
2023-11-25T23:19:08.356Z,57.47
2023-11-25T23:21:10.348Z,57.70
2023-11-25T23:23:11.861Z,57.75
2023-11-25T23:25:13.214Z,57.79
2023-11-25T23:27:14.543Z,57.21
2023-11-25T23:29:16.517Z,57.59
2023-11-25T23:31:17.884Z,57.56
2023-11-25T23:33:19.338Z,57.75
2023-11-25T23:35:20.792Z,57.71
2023-11-25T23:37:22.133Z,58.01
2023-11-25T23:39:23.461Z,57.61
2023-11-25T23:41:24.819Z,57.35
2023-11-25T23:43:26.272Z,57.54
2023-11-25T23:45:27.628Z,58.17
2023-11-25T23:47:28.990Z,58.22
2023-11-25T23:49:30.412Z,58.28
2023-11-25T23:51:31.735Z,58.19
2023-11-25T23:53:33.187Z,57.73
2023-11-25T23:55:35.051Z,57.59
2023-11-25T23:57:38.530Z,57.54
2023-11-25T23:59:39.943Z,56.97
